Time;durP1;ratioP1;P1;durP2;ratioP2;P2;SDS_P1;SDS_P2;PMS_P1;PMS_P2;Temp;Humidity;BMP_temperature;BMP_pressure;BME280_temperature;BME280_humidity;BME280_pressure;Samples;Min_cycle;Max_cycle;Signal;HPM_P1;HPM_P2
2023/09/22 00:00:38;;;;;;;0.00;0.00;;;15.70;90.30;;;;;;4970949;28;20774;-71
2023/09/22 00:03:07;;;;;;;0.00;0.00;;;15.70;90.20;;;;;;4970572;28;20057;-71
2023/09/22 00:05:33;;;;;;;0.00;0.00;;;15.70;90.30;;;;;;4971201;28;20134;-72
2023/09/22 00:07:58;;;;;;;0.00;0.00;;;15.80;90.30;;;;;;4970692;28;20162;-71
2023/09/22 00:10:24;;;;;;;0.10;0.10;;;15.80;90.30;;;;;;4970744;28;20070;-71
2023/09/22 00:12:50;;;;;;;0.05;0.05;;;15.80;90.30;;;;;;4970588;28;20834;-71
2023/09/22 00:15:15;;;;;;;0.00;0.00;;;15.80;90.30;;;;;;4970812;28;20134;-72
2023/09/22 00:17:41;;;;;;;0.00;0.00;;;15.70;90.30;;;;;;4969389;28;20488;-71
2023/09/22 00:20:08;;;;;;;0.00;0.00;;;15.70;90.30;;;;;;4969834;28;20074;-71
2023/09/22 00:22:34;;;;;;;0.00;0.00;;;15.70;90.40;;;;;;4953340;28;20496;-71
2023/09/22 00:25:00;;;;;;;0.00;0.00;;;15.70;90.40;;;;;;4970252;28;20043;-71
2023/09/22 00:27:26;;;;;;;0.00;0.00;;;15.60;90.30;;;;;;4970065;28;20424;-71
2023/09/22 00:29:52;;;;;;;0.00;0.00;;;15.70;90.40;;;;;;4970221;28;20046;-71
2023/09/22 00:32:17;;;;;;;0.00;0.00;;;15.60;90.40;;;;;;4970799;28;20496;-71
2023/09/22 00:34:43;;;;;;;0.00;0.00;;;15.70;90.40;;;;;;4970193;28;20054;-71
2023/09/22 00:37:09;;;;;;;0.00;0.00;;;15.70;90.50;;;;;;4969703;28;20035;-71
2023/09/22 00:39:35;;;;;;;0.00;0.00;;;15.60;90.40;;;;;;4969848;28;20055;-71
2023/09/22 00:42:01;;;;;;;0.00;0.00;;;15.60;90.40;;;;;;4970413;28;20039;-71
2023/09/22 00:44:27;;;;;;;0.00;0.00;;;15.60;90.40;;;;;;4968137;28;20074;-70
2023/09/22 00:46:53;;;;;;;0.10;0.10;;;15.60;90.30;;;;;;4966480;28;20088;-71
2023/09/22 00:49:19;;;;;;;0.00;0.00;;;15.60;90.30;;;;;;4970477;28;20038;-71
2023/09/22 00:51:45;;;;;;;0.25;0.25;;;15.50;90.30;;;;;;4970351;28;20624;-70
2023/09/22 00:54:11;;;;;;;0.00;0.00;;;15.50;90.30;;;;;;4952657;28;20050;-71
2023/09/22 00:56:37;;;;;;;0.00;0.00;;;15.50;90.40;;;;;;4970321;28;20047;-70
2023/09/22 00:59:03;;;;;;;0.00;0.00;;;15.50;90.40;;;;;;4969913;28;20389;-70
2023/09/22 01:01:28;;;;;;;0.00;0.00;;;15.50;90.40;;;;;;4969905;28;20054;-71
2023/09/22 01:03:55;;;;;;;0.57;0.57;;;15.50;90.50;;;;;;4969087;28;20047;-71
2023/09/22 01:06:21;;;;;;;0.00;0.00;;;15.50;90.50;;;;;;4969969;28;20047;-70
2023/09/22 01:08:46;;;;;;;0.00;0.00;;;15.50;90.50;;;;;;4970262;28;20125;-70
2023/09/22 01:11:12;;;;;;;0.00;0.00;;;15.50;90.50;;;;;;4970375;28;20130;-71
2023/09/22 01:13:38;;;;;;;0.25;0.25;;;15.40;90.50;;;;;;4970035;28;20051;-70
2023/09/22 01:16:04;;;;;;;0.00;0.00;;;15.50;90.70;;;;;;4970061;28;20050;-70
2023/09/22 01:18:30;;;;;;;0.10;0.10;;;15.40;90.70;;;;;;4970224;28;20073;-70
2023/09/22 01:20:58;;;;;;;0.00;0.00;;;15.50;90.70;;;;;;4970041;28;20058;-70
2023/09/22 01:23:24;;;;;;;0.00;0.00;;;15.40;90.70;;;;;;4956761;28;20443;-71
2023/09/22 01:25:50;;;;;;;1.15;0.35;;;15.40;90.70;;;;;;4959040;28;20055;-70
2023/09/22 01:28:15;;;;;;;0.15;0.10;;;15.30;90.60;;;;;;4951490;28;20043;-70
2023/09/22 01:30:42;;;;;;;0.00;0.00;;;15.30;90.60;;;;;;4949868;28;20043;-71
2023/09/22 01:33:09;;;;;;;0.00;0.00;;;15.30;90.80;;;;;;4953540;28;20419;-71
2023/09/22 01:35:35;;;;;;;0.00;0.00;;;15.10;90.80;;;;;;4967601;28;20058;-70
2023/09/22 01:38:10;;;;;;;0.00;0.00;;;15.10;90.80;;;;;;4959085;28;20052;-70
2023/09/22 01:40:36;;;;;;;0.00;0.00;;;15.00;90.80;;;;;;4956578;28;20142;-70
2023/09/22 01:43:02;;;;;;;0.35;0.35;;;15.00;91.00;;;;;;4936571;28;20126;-70
2023/09/22 01:45:27;;;;;;;0.00;0.00;;;14.90;91.10;;;;;;4968820;28;20047;-70
2023/09/22 01:47:53;;;;;;;0.20;0.20;;;14.90;90.90;;;;;;4953040;28;20085;-70
2023/09/22 01:50:19;;;;;;;0.00;0.00;;;14.80;91.00;;;;;;4969423;28;20098;-70
2023/09/22 01:52:45;;;;;;;0.00;0.00;;;14.80;91.10;;;;;;4961679;28;20047;-71
2023/09/22 01:55:11;;;;;;;0.00;0.00;;;14.70;91.10;;;;;;4954748;28;20038;-70
2023/09/22 01:57:37;;;;;;;0.10;0.10;;;14.60;91.10;;;;;;4958198;28;20480;-71
2023/09/22 02:00:05;;;;;;;0.00;0.00;;;14.60;91.20;;;;;;4968386;28;20039;-70
2023/09/22 02:02:32;;;;;;;0.00;0.00;;;14.60;91.20;;;;;;4960208;28;20404;-70
2023/09/22 02:04:59;;;;;;;0.00;0.00;;;14.50;91.20;;;;;;4956972;28;20055;-70
2023/09/22 02:07:25;;;;;;;0.10;0.10;;;14.50;91.30;;;;;;4955800;28;20047;-70
2023/09/22 02:09:50;;;;;;;0.15;0.15;;;14.40;91.40;;;;;;4967749;28;20054;-71
2023/09/22 02:12:16;;;;;;;0.00;0.00;;;14.40;91.40;;;;;;4965780;28;20078;-71
2023/09/22 02:14:41;;;;;;;0.00;0.00;;;14.40;91.40;;;;;;4971421;28;20054;-71
2023/09/22 02:17:07;;;;;;;0.00;0.00;;;14.30;91.40;;;;;;4960591;28;20397;-71
2023/09/22 02:19:35;;;;;;;0.00;0.00;;;14.30;91.40;;;;;;4957201;28;20050;-71
2023/09/22 02:22:02;;;;;;;0.00;0.00;;;14.30;91.40;;;;;;4970813;28;20108;-71
2023/09/22 02:24:27;;;;;;;0.00;0.00;;;14.20;91.40;;;;;;4970798;28;20035;-70
2023/09/22 02:26:53;;;;;;;0.00;0.00;;;14.20;91.50;;;;;;4967055;28;20719;-71
2023/09/22 02:29:18;;;;;;;33.10;1.50;;;14.20;91.70;;;;;;4954385;28;20046;-71
2023/09/22 02:31:44;;;;;;;0.00;0.00;;;14.10;91.70;;;;;;4955302;28;20055;-71
2023/09/22 02:34:10;;;;;;;1.77;0.47;;;14.10;91.70;;;;;;4951668;28;20039;-71
2023/09/22 02:36:35;;;;;;;0.00;0.00;;;14.10;91.80;;;;;;4956978;28;20137;-71
2023/09/22 02:39:01;;;;;;;0.00;0.00;;;14.10;91.70;;;;;;4953830;28;20044;-71
2023/09/22 02:41:26;;;;;;;0.00;0.00;;;14.10;91.70;;;;;;4959528;28;20051;-71
2023/09/22 02:43:52;;;;;;;0.00;0.00;;;14.00;91.60;;;;;;4942922;29;20046;-70
2023/09/22 02:46:17;;;;;;;0.00;0.00;;;14.00;91.60;;;;;;4955040;28;20043;-71
2023/09/22 02:48:45;;;;;;;0.00;0.00;;;14.00;91.40;;;;;;4970648;28;20050;-72
2023/09/22 02:51:11;;;;;;;0.00;0.00;;;14.00;91.50;;;;;;4969753;28;20427;-71
2023/09/22 02:53:36;;;;;;;0.00;0.00;;;14.00;91.40;;;;;;4952428;28;20067;-71
2023/09/22 02:56:05;;;;;;;0.10;0.10;;;13.90;91.40;;;;;;4955173;28;20757;-71
2023/09/22 02:58:31;;;;;;;0.00;0.00;;;13.90;91.30;;;;;;4960678;28;20043;-71
2023/09/22 03:00:56;;;;;;;0.00;0.00;;;13.90;91.30;;;;;;4951988;28;20051;-71
2023/09/22 03:03:22;;;;;;;0.00;0.00;;;13.90;91.40;;;;;;4956376;28;20178;-71
2023/09/22 03:05:48;;;;;;;0.00;0.00;;;13.90;91.30;;;;;;4946069;28;20042;-71
2023/09/22 03:08:13;;;;;;;0.00;0.00;;;13.90;91.30;;;;;;4963672;28;20039;-71
2023/09/22 03:10:39;;;;;;;0.00;0.00;;;14.00;91.50;;;;;;4967761;28;20129;-71
2023/09/22 03:13:04;;;;;;;0.00;0.00;;;13.90;91.60;;;;;;4952342;28;20145;-71
2023/09/22 03:15:30;;;;;;;0.35;0.35;;;14.00;91.70;;;;;;4952254;28;20917;-71
2023/09/22 03:17:56;;;;;;;0.00;0.00;;;14.00;91.70;;;;;;4958204;28;20058;-71
2023/09/22 03:20:22;;;;;;;0.00;0.00;;;14.00;91.60;;;;;;4962630;28;20133;-71
2023/09/22 03:22:47;;;;;;;0.00;0.00;;;14.00;91.70;;;;;;4966141;28;20121;-70
2023/09/22 03:25:14;;;;;;;0.00;0.00;;;14.00;91.90;;;;;;4952221;28;20563;-71
2023/09/22 03:27:40;;;;;;;0.00;0.00;;;14.10;91.90;;;;;;4954204;28;20062;-70
2023/09/22 03:30:08;;;;;;;0.00;0.00;;;14.10;91.90;;;;;;4951652;28;20404;-71
2023/09/22 03:32:35;;;;;;;0.00;0.00;;;14.10;92.10;;;;;;4967505;28;20153;-71
2023/09/22 03:35:06;;;;;;;0.00;0.00;;;14.10;92.20;;;;;;4955798;28;20118;-70
2023/09/22 03:37:32;;;;;;;0.00;0.00;;;14.10;92.20;;;;;;4962227;28;20061;-71
2023/09/22 03:39:58;;;;;;;0.10;0.10;;;14.10;92.20;;;;;;4957614;28;20054;-70
2023/09/22 03:42:27;;;;;;;0.00;0.00;;;14.10;92.20;;;;;;4956684;28;20515;-70
2023/09/22 03:44:53;;;;;;;0.00;0.00;;;14.10;92.20;;;;;;4964271;28;20196;-71
2023/09/22 03:47:19;;;;;;;0.00;0.00;;;14.10;92.20;;;;;;4955047;28;20126;-71
2023/09/22 03:49:45;;;;;;;0.00;0.00;;;14.10;92.20;;;;;;4960425;28;20094;-71
2023/09/22 03:52:10;;;;;;;0.00;0.00;;;14.10;92.30;;;;;;4966379;28;20038;-70
2023/09/22 03:54:36;;;;;;;0.00;0.00;;;14.10;92.30;;;;;;4961366;28;20412;-70
2023/09/22 03:57:01;;;;;;;0.10;0.10;;;14.10;92.20;;;;;;4956280;28;20051;-71
2023/09/22 03:59:27;;;;;;;0.00;0.00;;;14.20;92.40;;;;;;4951367;28;20618;-70
2023/09/22 04:01:54;;;;;;;0.00;0.00;;;14.10;92.50;;;;;;4954325;28;20051;-71
2023/09/22 04:04:20;;;;;;;0.20;0.20;;;14.20;92.70;;;;;;4962513;28;20051;-71
2023/09/22 04:06:46;;;;;;;0.00;0.00;;;14.20;92.50;;;;;;4967751;28;20058;-71
2023/09/22 04:09:11;;;;;;;0.00;0.00;;;14.20;92.50;;;;;;4958947;28;20047;-70
2023/09/22 04:11:37;;;;;;;0.03;0.03;;;14.30;92.60;;;;;;4958960;28;21385;-70
2023/09/22 04:14:03;;;;;;;0.00;0.00;;;14.20;92.40;;;;;;4963104;28;20126;-71
2023/09/22 04:16:29;;;;;;;0.00;0.00;;;14.20;92.40;;;;;;4968684;28;20046;-71
2023/09/22 04:18:55;;;;;;;0.05;0.05;;;14.30;92.30;;;;;;4950968;28;20047;-70
2023/09/22 04:21:23;;;;;;;0.00;0.00;;;14.30;92.30;;;;;;4960219;28;20385;-70
2023/09/22 04:23:59;;;;;;;0.00;0.00;;;14.30;92.30;;;;;;4963802;28;20054;-71
2023/09/22 04:26:29;;;;;;;0.00;0.00;;;14.30;92.30;;;;;;4955614;28;20043;-71
2023/09/22 04:28:59;;;;;;;0.00;0.00;;;14.40;92.30;;;;;;4952821;28;20047;-71
2023/09/22 04:31:25;;;;;;;0.13;0.13;;;14.40;92.30;;;;;;4959066;28;20194;-71
2023/09/22 04:33:52;;;;;;;0.00;0.00;;;14.40;92.30;;;;;;4958018;28;20053;-70
2023/09/22 04:36:22;;;;;;;0.00;0.00;;;14.40;92.40;;;;;;4950664;28;20045;-71
2023/09/22 04:38:50;;;;;;;0.00;0.00;;;14.50;92.40;;;;;;4956312;28;20051;-70
2023/09/22 04:41:18;;;;;;;0.00;0.00;;;14.50;92.30;;;;;;4962686;28;20042;-71
2023/09/22 04:43:43;;;;;;;0.00;0.00;;;14.50;92.40;;;;;;4962790;28;20523;-71
2023/09/22 04:46:09;;;;;;;0.00;0.00;;;14.50;92.40;;;;;;4968766;28;20078;-71
2023/09/22 04:48:35;;;;;;;0.00;0.00;;;14.40;92.50;;;;;;4960426;28;20166;-71
2023/09/22 04:51:00;;;;;;;0.00;0.00;;;14.40;92.40;;;;;;4961233;28;20176;-71
2023/09/22 04:53:28;;;;;;;0.00;0.00;;;14.40;92.40;;;;;;4966327;28;20042;-71
2023/09/22 04:56:04;;;;;;;0.00;0.00;;;14.40;92.40;;;;;;4950736;28;20051;-71
2023/09/22 04:58:34;;;;;;;0.00;0.00;;;14.50;92.40;;;;;;4950794;28;20043;-71
2023/09/22 05:01:02;;;;;;;0.00;0.00;;;14.50;92.40;;;;;;4965569;28;20054;-70
2023/09/22 05:03:28;;;;;;;0.00;0.00;;;14.50;92.30;;;;;;4952947;28;20686;-71
2023/09/22 05:05:54;;;;;;;0.00;0.00;;;14.50;92.20;;;;;;4970144;28;20085;-71
2023/09/22 05:08:20;;;;;;;0.00;0.00;;;14.50;92.20;;;;;;4970455;28;20039;-69
2023/09/22 05:10:49;;;;;;;0.00;0.00;;;14.50;92.10;;;;;;4967431;28;20051;-70
2023/09/22 05:13:18;;;;;;;0.00;0.00;;;14.50;92.10;;;;;;4961403;28;20105;-70
2023/09/22 05:15:45;;;;;;;0.00;0.00;;;14.50;92.10;;;;;;4954805;28;20085;-70
2023/09/22 05:18:14;;;;;;;0.10;0.10;;;14.50;92.00;;;;;;4958898;28;20162;-71
2023/09/22 05:20:43;;;;;;;0.38;0.38;;;14.40;91.90;;;;;;4969246;28;20055;-69
2023/09/22 05:23:09;;;;;;;0.00;0.00;;;14.40;91.90;;;;;;4968742;28;20047;-70
2023/09/22 05:25:41;;;;;;;0.10;0.10;;;14.40;91.90;;;;;;4969489;28;20051;-70
2023/09/22 05:28:11;;;;;;;0.00;0.00;;;14.40;91.80;;;;;;4967099;28;20046;-69
2023/09/22 05:30:39;;;;;;;0.00;0.00;;;14.30;91.70;;;;;;4972567;28;20057;-69
2023/09/22 05:33:07;;;;;;;0.00;0.00;;;14.30;91.60;;;;;;4962821;28;20118;-69
2023/09/22 05:35:35;;;;;;;0.10;0.10;;;14.30;91.60;;;;;;4956311;28;20574;-69
2023/09/22 05:38:04;;;;;;;0.08;0.08;;;14.30;91.50;;;;;;4972929;28;20074;-69
2023/09/22 05:40:34;;;;;;;0.10;0.10;;;14.20;91.40;;;;;;4971865;28;20058;-69
2023/09/22 05:43:01;;;;;;;0.10;0.10;;;14.20;91.40;;;;;;4970734;28;20051;-70
2023/09/22 05:45:26;;;;;;;0.08;0.08;;;14.20;91.20;;;;;;4971791;28;20546;-70
2023/09/22 05:47:52;;;;;;;0.00;0.00;;;14.10;91.20;;;;;;4955401;28;20066;-71
2023/09/22 05:50:17;;;;;;;0.00;0.00;;;14.10;91.20;;;;;;4971771;28;20117;-71
2023/09/22 05:52:43;;;;;;;0.00;0.00;;;14.10;91.20;;;;;;4972182;28;20612;-70
2023/09/22 05:55:10;;;;;;;0.00;0.00;;;14.10;91.10;;;;;;4977881;28;20199;-67
2023/09/22 05:57:36;;;;;;;0.30;0.30;;;14.00;91.10;;;;;;4976322;28;20066;-65
2023/09/22 06:00:06;;;;;;;0.00;0.00;;;14.00;91.30;;;;;;4969908;28;20043;-66
2023/09/22 06:02:32;;;;;;;0.85;0.85;;;14.00;91.30;;;;;;4971778;28;20074;-67
2023/09/22 06:04:58;;;;;;;0.05;0.05;;;14.00;91.20;;;;;;4970169;28;20085;-66
2023/09/22 06:07:25;;;;;;;0.28;0.28;;;13.90;91.50;;;;;;4972080;28;20038;-66
2023/09/22 06:09:50;;;;;;;0.10;0.10;;;13.90;91.50;;;;;;4966053;28;20051;-66
2023/09/22 06:12:16;;;;;;;0.00;0.00;;;14.00;91.40;;;;;;4961695;28;20566;-67
2023/09/22 06:14:42;;;;;;;0.00;0.00;;;14.10;91.40;;;;;;4967930;28;20126;-70
2023/09/22 06:17:07;;;;;;;0.00;0.00;;;14.00;91.40;;;;;;4972660;28;20055;-70
2023/09/22 06:19:33;;;;;;;0.00;0.00;;;14.00;91.40;;;;;;4963326;28;20069;-72
2023/09/22 06:21:59;;;;;;;0.10;0.10;;;14.00;91.40;;;;;;4972213;28;20050;-72
2023/09/22 06:24:25;;;;;;;0.03;0.03;;;14.10;91.40;;;;;;4953196;28;20043;-71
2023/09/22 06:26:52;;;;;;;0.10;0.10;;;14.10;91.30;;;;;;4970874;28;20714;-68
2023/09/22 06:29:18;;;;;;;0.93;0.55;;;14.10;91.30;;;;;;4971182;28;20075;-67
2023/09/22 06:31:44;;;;;;;0.15;0.15;;;14.10;91.30;;;;;;4971206;28;20078;-68
2023/09/22 06:34:10;;;;;;;0.28;0.28;;;14.10;91.30;;;;;;4969974;28;20051;-68
2023/09/22 06:36:36;;;;;;;0.00;0.00;;;14.10;91.30;;;;;;4971346;28;20098;-68
2023/09/22 06:39:07;;;;;;;0.00;0.00;;;14.10;91.50;;;;;;4968333;28;20054;-68
2023/09/22 06:41:33;;;;;;;0.00;0.00;;;14.10;91.50;;;;;;4970877;28;20113;-68
2023/09/22 06:43:59;;;;;;;0.10;0.10;;;14.10;91.50;;;;;;4972138;28;20057;-68
2023/09/22 06:46:25;;;;;;;0.10;0.10;;;14.10;91.50;;;;;;4970829;28;20569;-69
2023/09/22 06:48:50;;;;;;;0.00;0.00;;;14.10;91.60;;;;;;4946408;28;20123;-68
2023/09/22 06:51:19;;;;;;;0.00;0.00;;;14.10;91.60;;;;;;4956411;28;20078;-68
2023/09/22 06:53:46;;;;;;;0.22;0.22;;;14.20;91.60;;;;;;4954416;28;20083;-68
2023/09/22 06:56:11;;;;;;;0.10;0.10;;;14.20;91.60;;;;;;4959185;28;20565;-67
2023/09/22 06:58:40;;;;;;;0.00;0.00;;;14.20;91.50;;;;;;4951028;28;20054;-68
2023/09/22 07:01:12;;;;;;;0.00;0.00;;;14.20;91.50;;;;;;4962995;28;20047;-68
2023/09/22 07:03:38;;;;;;;0.00;0.00;;;14.30;91.50;;;;;;4960801;28;20035;-67
2023/09/22 07:06:09;;;;;;;0.55;0.55;;;14.30;91.30;;;;;;4960718;28;20039;-67
2023/09/22 07:08:35;;;;;;;0.25;0.25;;;14.30;91.40;;;;;;4958896;28;20046;-67
2023/09/22 07:11:07;;;;;;;0.08;0.08;;;14.30;91.30;;;;;;4954413;28;20067;-66
2023/09/22 07:13:32;;;;;;;0.20;0.20;;;14.30;91.20;;;;;;4953302;28;20043;-69
2023/09/22 07:15:59;;;;;;;0.65;0.65;;;14.40;91.20;;;;;;4959226;28;20047;-67
2023/09/22 07:18:28;;;;;;;0.00;0.00;;;14.30;91.10;;;;;;4951967;28;20058;-68
2023/09/22 07:20:54;;;;;;;0.00;0.00;;;14.30;91.00;;;;;;4956681;28;20160;-68
2023/09/22 07:23:21;;;;;;;0.52;0.43;;;14.30;91.10;;;;;;4953090;28;20555;-69
2023/09/22 07:26:11;;;;;;;0.00;0.00;;;14.40;91.10;;;;;;4956086;28;20043;-68
2023/09/22 07:28:37;;;;;;;0.00;0.00;;;14.40;91.20;;;;;;4950323;28;20114;-67
2023/09/22 07:31:20;;;;;;;15.15;2.05;;;14.40;91.00;;;;;;4958260;28;20133;-67
2023/09/22 07:33:46;;;;;;;0.00;0.00;;;14.40;91.00;;;;;;4953212;28;20078;-68
2023/09/22 07:36:13;;;;;;;0.00;0.00;;;14.60;91.40;;;;;;4955366;28;20081;-68
2023/09/22 07:38:38;;;;;;;0.00;0.00;;;14.90;91.40;;;;;;4958407;28;20080;-68
2023/09/22 07:41:04;;;;;;;0.00;0.00;;;15.20;91.20;;;;;;4957466;28;20559;-69
2023/09/22 07:43:30;;;;;;;0.00;0.00;;;15.20;90.50;;;;;;4935726;28;20043;-69
2023/09/22 07:45:57;;;;;;;1.10;1.00;;;15.20;89.90;;;;;;4949992;28;20058;-69
2023/09/22 07:48:22;;;;;;;0.00;0.00;;;15.10;89.80;;;;;;4955477;28;20042;-69
2023/09/22 07:50:48;;;;;;;0.00;0.00;;;15.10;89.60;;;;;;4952060;28;20059;-70
2023/09/22 07:53:13;;;;;;;0.00;0.00;;;15.10;89.60;;;;;;4951134;28;20047;-69
2023/09/22 07:55:41;;;;;;;0.00;0.00;;;15.10;89.60;;;;;;4955810;28;20661;-68
2023/09/22 07:58:09;;;;;;;0.00;0.00;;;15.10;89.70;;;;;;4956196;28;20050;-69
2023/09/22 08:00:34;;;;;;;0.00;0.00;;;15.20;89.60;;;;;;4950886;28;20047;-68
2023/09/22 08:03:00;;;;;;;0.00;0.00;;;15.20;89.40;;;;;;4957259;28;20049;-68
2023/09/22 08:05:26;;;;;;;0.00;0.00;;;15.10;89.20;;;;;;4950815;28;20055;-68
2023/09/22 08:07:52;;;;;;;0.00;0.00;;;15.20;89.10;;;;;;4956990;28;20097;-68
2023/09/22 08:10:18;;;;;;;0.70;0.70;;;15.20;89.10;;;;;;4950372;28;20050;-68
2023/09/22 08:12:44;;;;;;;0.13;0.13;;;15.10;88.50;;;;;;4958481;28;20043;-68
2023/09/22 08:15:11;;;;;;;0.03;0.03;;;15.10;88.80;;;;;;4958203;28;20035;-68
2023/09/22 08:17:36;;;;;;;0.13;0.13;;;15.10;88.90;;;;;;4955508;28;20045;-68
2023/09/22 08:20:07;;;;;;;0.20;0.20;;;15.10;88.90;;;;;;4952565;28;20714;-68
2023/09/22 08:22:32;;;;;;;0.85;0.73;;;15.10;88.60;;;;;;4958383;28;20118;-68
2023/09/22 08:24:58;;;;;;;0.85;0.85;;;15.10;88.50;;;;;;4949989;28;20125;-68
2023/09/22 08:27:24;;;;;;;1.55;1.45;;;15.10;88.50;;;;;;4958956;28;20058;-70
2023/09/22 08:29:50;;;;;;;0.10;0.10;;;15.20;89.00;;;;;;4949150;28;20043;-70
2023/09/22 08:32:16;;;;;;;0.00;0.00;;;15.50;89.40;;;;;;4955981;28;20051;-68
2023/09/22 08:34:42;;;;;;;0.00;0.00;;;15.80;88.80;;;;;;4947869;28;20051;-74
2023/09/22 08:37:08;;;;;;;0.00;0.00;;;15.80;86.70;;;;;;4941867;28;20102;-74
2023/09/22 08:39:34;;;;;;;0.00;0.00;;;15.80;86.70;;;;;;4949162;28;20510;-66
2023/09/22 08:41:59;;;;;;;0.10;0.10;;;15.80;86.70;;;;;;4959532;28;20049;-66
2023/09/22 08:44:30;;;;;;;0.10;0.10;;;15.90;85.90;;;;;;4949721;28;20134;-69
2023/09/22 08:46:57;;;;;;;0.00;0.00;;;15.90;85.70;;;;;;4959620;28;20838;-68
2023/09/22 08:49:22;;;;;;;0.00;0.00;;;15.80;85.00;;;;;;4954184;28;20090;-68
2023/09/22 08:51:49;;;;;;;0.00;0.00;;;15.60;84.90;;;;;;4952208;28;20078;-68
2023/09/22 08:54:15;;;;;;;0.00;0.00;;;15.60;84.70;;;;;;4955798;28;20046;-68
2023/09/22 08:56:40;;;;;;;0.10;0.10;;;15.60;85.20;;;;;;4952179;28;20051;-68
2023/09/22 08:59:09;;;;;;;0.00;0.00;;;15.70;85.40;;;;;;4953620;28;20467;-69
2023/09/22 09:01:38;;;;;;;0.45;0.45;;;15.70;85.50;;;;;;4954368;28;20059;-65
2023/09/22 09:04:33;;;;;;;0.20;0.20;;;15.70;85.20;;;;;;4963307;28;20034;-67
2023/09/22 09:06:59;;;;;;;0.00;0.00;;;15.70;84.80;;;;;;4961795;28;20062;-69
2023/09/22 09:09:24;;;;;;;0.63;0.63;;;15.70;85.00;;;;;;4962190;28;20043;-69
2023/09/22 09:12:00;;;;;;;0.00;0.00;;;15.80;84.30;;;;;;4959900;28;20078;-69
2023/09/22 09:14:29;;;;;;;0.00;0.00;;;15.90;84.30;;;;;;4960840;28;20575;-70
2023/09/22 09:16:58;;;;;;;0.10;0.10;;;16.00;84.20;;;;;;4960985;28;20079;-67
2023/09/22 09:19:26;;;;;;;0.10;0.10;;;16.00;83.70;;;;;;4961116;28;20101;-69
2023/09/22 09:22:05;;;;;;;0.00;0.00;;;16.10;83.20;;;;;;4955225;28;20054;-69
2023/09/22 09:24:32;;;;;;;0.00;0.00;;;16.10;82.30;;;;;;4961885;28;20067;-70
2023/09/22 09:26:58;;;;;;;0.10;0.10;;;16.10;82.60;;;;;;4960723;28;21232;-69
2023/09/22 09:29:31;;;;;;;0.00;0.00;;;16.10;82.10;;;;;;4957161;28;20038;-70
2023/09/22 09:32:00;;;;;;;0.00;0.00;;;16.10;81.80;;;;;;4959590;28;20521;-69
2023/09/22 09:34:41;;;;;;;0.00;0.00;;;16.10;80.90;;;;;;4961762;28;20055;-69
2023/09/22 09:37:14;;;;;;;0.00;0.00;;;16.20;81.90;;;;;;4963339;28;20062;-70
2023/09/22 09:39:50;;;;;;;0.00;0.00;;;16.20;81.80;;;;;;4959795;28;20078;-70
2023/09/22 09:42:18;;;;;;;0.38;0.38;;;16.20;81.20;;;;;;4957059;28;20051;-70
2023/09/22 09:45:01;;;;;;;0.00;0.00;;;16.20;80.20;;;;;;4962291;28;20035;-70
2023/09/22 09:47:35;;;;;;;0.03;0.03;;;16.20;79.40;;;;;;4957112;28;20039;-71
2023/09/22 09:50:04;;;;;;;0.00;0.00;;;16.20;79.20;;;;;;4962130;28;20134;-70
2023/09/22 09:52:35;;;;;;;0.30;0.30;;;16.20;80.40;;;;;;4956359;28;20113;-71
2023/09/22 09:55:27;;;;;;;0.00;0.00;;;16.30;80.90;;;;;;4961347;28;20038;-70
2023/09/22 09:57:56;;;;;;;0.00;0.00;;;16.40;80.90;;;;;;4956734;28;20047;-70
2023/09/22 10:00:21;;;;;;;0.00;0.00;;;16.40;79.30;;;;;;4959500;28;20055;-70
2023/09/22 10:02:50;;;;;;;0.00;0.00;;;16.50;80.40;;;;;;4960505;28;20050;-71
2023/09/22 10:05:17;;;;;;;0.00;0.00;;;16.50;80.20;;;;;;4960024;28;20039;-71
2023/09/22 10:07:44;;;;;;;0.00;0.00;;;16.30;79.10;;;;;;4956682;28;20672;-71
2023/09/22 10:10:11;;;;;;;0.00;0.00;;;16.20;79.60;;;;;;4965059;28;20154;-70
2023/09/22 10:12:38;;;;;;;0.00;0.00;;;16.20;80.50;;;;;;4965400;28;20043;-70
2023/09/22 10:15:05;;;;;;;0.00;0.00;;;16.00;80.60;;;;;;4956442;28;20074;-70
2023/09/22 10:17:31;;;;;;;0.00;0.00;;;16.00;80.80;;;;;;4951364;28;20051;-71
2023/09/22 10:20:06;;;;;;;0.00;0.00;;;15.90;81.30;;;;;;4956244;28;20462;-70
2023/09/22 10:22:35;;;;;;;0.00;0.00;;;15.80;81.50;;;;;;4955082;28;20530;-69
2023/09/22 10:25:13;;;;;;;0.00;0.00;;;15.80;81.70;;;;;;4956468;28;20038;-68
2023/09/22 10:27:58;;;;;;;0.00;0.00;;;15.80;82.00;;;;;;4955627;28;20051;-69
2023/09/22 10:30:44;;;;;;;0.00;0.00;;;15.80;82.20;;;;;;4959396;28;20619;-69
2023/09/22 10:33:15;;;;;;;0.00;0.00;;;15.70;82.00;;;;;;4954374;28;20129;-70
2023/09/22 10:35:41;;;;;;;0.00;0.00;;;15.60;81.70;;;;;;4957279;28;20070;-70
2023/09/22 10:38:10;;;;;;;0.38;0.38;;;15.80;82.20;;;;;;4951808;28;20424;-70
2023/09/22 10:40:35;;;;;;;0.17;0.17;;;15.80;81.90;;;;;;4961911;28;20588;-70
2023/09/22 10:43:04;;;;;;;0.00;0.00;;;15.90;82.30;;;;;;4953801;28;20051;-71
2023/09/22 10:45:30;;;;;;;0.00;0.00;;;15.80;82.00;;;;;;4959119;28;20043;-70
2023/09/22 10:47:59;;;;;;;0.00;0.00;;;15.90;81.90;;;;;;4952228;28;20051;-70
2023/09/22 10:50:30;;;;;;;0.00;0.00;;;15.90;81.90;;;;;;4959413;28;20051;-70
2023/09/22 10:52:56;;;;;;;0.00;0.00;;;16.00;82.30;;;;;;4953806;28;20089;-70
2023/09/22 10:55:27;;;;;;;0.10;0.10;;;16.20;82.40;;;;;;4962694;28;20130;-70
2023/09/22 10:57:56;;;;;;;0.00;0.00;;;16.20;82.10;;;;;;4955349;28;20517;-70
2023/09/22 11:00:22;;;;;;;0.00;0.00;;;16.40;81.20;;;;;;4961918;28;20107;-70
2023/09/22 11:02:49;;;;;;;0.10;0.10;;;16.30;80.70;;;;;;4957360;28;20106;-70
2023/09/22 11:05:18;;;;;;;0.00;0.00;;;16.30;80.00;;;;;;4962888;28;20039;-70
2023/09/22 11:07:44;;;;;;;0.00;0.00;;;16.40;80.20;;;;;;4951308;28;20065;-70
2023/09/22 11:10:21;;;;;;;0.00;0.00;;;16.30;80.30;;;;;;4960822;28;20050;-71
2023/09/22 11:12:51;;;;;;;0.00;0.00;;;16.30;80.40;;;;;;4934017;28;20499;-70
2023/09/22 11:15:17;;;;;;;0.20;0.20;;;16.30;80.50;;;;;;4960536;28;20034;-70
2023/09/22 11:17:47;;;;;;;0.00;0.00;;;16.30;81.20;;;;;;4951397;28;20148;-70
2023/09/22 11:20:28;;;;;;;0.00;0.00;;;16.30;81.40;;;;;;4961673;28;20058;-70
2023/09/22 11:22:55;;;;;;;0.00;0.00;;;16.30;81.30;;;;;;4960863;28;20434;-70
2023/09/22 11:25:24;;;;;;;0.00;0.00;;;16.30;80.70;;;;;;4955156;28;20051;-69
2023/09/22 11:27:51;;;;;;;0.00;0.00;;;16.40;80.70;;;;;;4951570;28;20063;-70
2023/09/22 11:30:21;;;;;;;0.00;0.00;;;16.50;80.60;;;;;;4961207;28;20373;-70
2023/09/22 11:32:47;;;;;;;0.00;0.00;;;16.60;80.90;;;;;;4953352;28;20067;-70
2023/09/22 11:35:38;;;;;;;0.00;0.00;;;16.60;80.70;;;;;;4956428;28;20075;-70
2023/09/22 11:38:20;;;;;;;0.00;0.00;;;16.60;80.50;;;;;;4950777;28;20047;-69
2023/09/22 11:40:46;;;;;;;0.00;0.00;;;16.60;79.80;;;;;;4958889;28;20053;-69
2023/09/22 11:43:15;;;;;;;0.00;0.00;;;16.70;80.30;;;;;;4956559;28;20035;-70
2023/09/22 11:45:40;;;;;;;0.00;0.00;;;16.80;80.70;;;;;;4957758;28;20051;-70
2023/09/22 11:48:07;;;;;;;0.10;0.10;;;16.90;80.50;;;;;;4953157;28;20054;-69
2023/09/22 11:50:32;;;;;;;0.03;0.03;;;16.90;79.40;;;;;;4957785;28;20058;-70
2023/09/22 11:53:20;;;;;;;0.00;0.00;;;16.90;78.80;;;;;;4954112;28;20045;-70
2023/09/22 11:55:47;;;;;;;0.00;0.00;;;16.90;79.20;;;;;;4960080;28;20122;-70
2023/09/22 11:58:14;;;;;;;0.00;0.00;;;16.80;79.70;;;;;;4948789;28;20106;-70
2023/09/22 12:00:40;;;;;;;0.00;0.00;;;16.80;79.60;;;;;;4958709;28;20047;-70
2023/09/22 12:03:06;;;;;;;0.00;0.00;;;16.70;79.60;;;;;;4953014;28;20035;-69
2023/09/22 12:05:33;;;;;;;0.00;0.00;;;16.50;80.80;;;;;;4938596;28;20415;-69
2023/09/22 12:07:59;;;;;;;0.40;0.40;;;16.30;81.40;;;;;;4952463;28;20764;-69
2023/09/22 12:10:25;;;;;;;0.00;0.00;;;16.20;82.70;;;;;;4920477;28;20118;-69
2023/09/22 12:12:50;;;;;;;0.00;0.00;;;16.20;83.70;;;;;;4953725;28;20383;-69
2023/09/22 12:15:17;;;;;;;0.00;0.00;;;16.20;84.10;;;;;;4956418;28;20047;-69
2023/09/22 12:17:43;;;;;;;0.00;0.00;;;16.20;84.00;;;;;;4951728;28;20138;-69
2023/09/22 12:20:10;;;;;;;0.10;0.10;;;16.10;84.00;;;;;;4938965;28;20577;-69
2023/09/22 12:22:35;;;;;;;0.10;0.10;;;16.10;84.10;;;;;;4954641;28;20097;-69
2023/09/22 12:25:01;;;;;;;0.00;0.00;;;16.00;84.90;;;;;;4938615;28;20051;-69
2023/09/22 12:27:26;;;;;;;0.00;0.00;;;16.00;85.00;;;;;;4958685;28;20609;-70
2023/09/22 12:29:52;;;;;;;0.00;0.00;;;16.00;85.00;;;;;;4956497;28;20053;-70
2023/09/22 12:32:19;;;;;;;0.00;0.00;;;16.00;85.30;;;;;;4958031;28;20042;-69
2023/09/22 12:34:45;;;;;;;0.00;0.00;;;15.90;85.70;;;;;;4931470;28;20404;-70
2023/09/22 12:37:10;;;;;;;0.00;0.00;;;16.00;86.30;;;;;;4958331;28;20043;-69
2023/09/22 12:39:36;;;;;;;0.00;0.00;;;16.00;86.20;;;;;;4948633;28;20213;-69
2023/09/22 12:42:02;;;;;;;0.00;0.00;;;16.10;86.10;;;;;;4957655;28;20047;-70
2023/09/22 12:44:28;;;;;;;0.00;0.00;;;16.30;84.50;;;;;;4949237;28;20126;-70
2023/09/22 12:46:54;;;;;;;0.00;0.00;;;16.30;83.70;;;;;;4959095;28;20043;-69
2023/09/22 12:49:20;;;;;;;0.05;0.05;;;16.20;83.50;;;;;;4950387;28;20112;-70